sensor_id;sensor_type;location;lat;lon;timestamp;temperature;humidity
33428;DHT22;19769;48.150;16.306;2023-05-18T00:00:00;10.40;99.90
33428;DHT22;19769;48.150;16.306;2023-05-18T00:02:40;10.40;99.90
33428;DHT22;19769;48.150;16.306;2023-05-18T00:05:06;10.40;99.90
33428;DHT22;19769;48.150;16.306;2023-05-18T00:07:33;10.40;99.90
33428;DHT22;19769;48.150;16.306;2023-05-18T00:09:58;10.40;99.90
33428;DHT22;19769;48.150;16.306;2023-05-18T00:14:51;10.40;99.90
33428;DHT22;19769;48.150;16.306;2023-05-18T00:17:17;10.40;99.90
33428;DHT22;19769;48.150;16.306;2023-05-18T00:19:45;10.40;99.90
33428;DHT22;19769;48.150;16.306;2023-05-18T00:22:11;10.40;99.90
33428;DHT22;19769;48.150;16.306;2023-05-18T00:24:51;10.50;99.90
33428;DHT22;19769;48.150;16.306;2023-05-18T00:27:17;10.50;99.90
33428;DHT22;19769;48.150;16.306;2023-05-18T00:29:42;10.50;99.90
33428;DHT22;19769;48.150;16.306;2023-05-18T00:32:11;10.40;99.90
33428;DHT22;19769;48.150;16.306;2023-05-18T00:34:36;10.40;99.90
33428;DHT22;19769;48.150;16.306;2023-05-18T00:37:03;10.30;99.90
33428;DHT22;19769;48.150;16.306;2023-05-18T00:39:28;10.40;99.90
33428;DHT22;19769;48.150;16.306;2023-05-18T00:41:54;10.40;99.90
33428;DHT22;19769;48.150;16.306;2023-05-18T00:44:20;10.40;99.90
33428;DHT22;19769;48.150;16.306;2023-05-18T00:46:47;10.40;99.90
33428;DHT22;19769;48.150;16.306;2023-05-18T00:49:13;10.40;99.90
33428;DHT22;19769;48.150;16.306;2023-05-18T00:51:38;10.40;99.90
33428;DHT22;19769;48.150;16.306;2023-05-18T00:54:05;10.40;99.90
33428;DHT22;19769;48.150;16.306;2023-05-18T00:56:40;10.40;99.90
33428;DHT22;19769;48.150;16.306;2023-05-18T00:59:07;10.40;99.90
33428;DHT22;19769;48.150;16.306;2023-05-18T01:01:38;10.40;99.90
33428;DHT22;19769;48.150;16.306;2023-05-18T01:04:11;10.50;99.90
33428;DHT22;19769;48.150;16.306;2023-05-18T01:06:44;10.50;99.90
33428;DHT22;19769;48.150;16.306;2023-05-18T01:09:10;10.50;99.90
33428;DHT22;19769;48.150;16.306;2023-05-18T01:11:47;10.50;99.90
33428;DHT22;19769;48.150;16.306;2023-05-18T01:14:37;10.50;99.90
33428;DHT22;19769;48.150;16.306;2023-05-18T01:17:24;10.50;99.90
33428;DHT22;19769;48.150;16.306;2023-05-18T01:20:10;10.40;99.90
33428;DHT22;19769;48.150;16.306;2023-05-18T01:25:26;10.40;99.90
33428;DHT22;19769;48.150;16.306;2023-05-18T01:27:59;10.50;99.90
33428;DHT22;19769;48.150;16.306;2023-05-18T01:30:34;10.50;99.90
33428;DHT22;19769;48.150;16.306;2023-05-18T01:33:05;10.40;99.90
33428;DHT22;19769;48.150;16.306;2023-05-18T01:35:31;10.40;99.90
33428;DHT22;19769;48.150;16.306;2023-05-18T01:37:57;10.50;99.90
33428;DHT22;19769;48.150;16.306;2023-05-18T01:40:23;10.50;99.90
33428;DHT22;19769;48.150;16.306;2023-05-18T01:42:50;10.50;99.90
33428;DHT22;19769;48.150;16.306;2023-05-18T01:45:20;10.50;99.90
33428;DHT22;19769;48.150;16.306;2023-05-18T01:47:47;10.50;99.90
33428;DHT22;19769;48.150;16.306;2023-05-18T01:50:15;10.40;99.90
33428;DHT22;19769;48.150;16.306;2023-05-18T01:55:18;10.50;99.90
33428;DHT22;19769;48.150;16.306;2023-05-18T01:57:45;10.50;99.90
33428;DHT22;19769;48.150;16.306;2023-05-18T02:02:43;10.40;99.90
33428;DHT22;19769;48.150;16.306;2023-05-18T02:05:17;10.50;99.90
33428;DHT22;19769;48.150;16.306;2023-05-18T02:07:43;10.50;99.90
33428;DHT22;19769;48.150;16.306;2023-05-18T02:10:13;10.50;99.90
33428;DHT22;19769;48.150;16.306;2023-05-18T02:12:39;10.50;99.90
33428;DHT22;19769;48.150;16.306;2023-05-18T02:15:05;10.40;99.90
33428;DHT22;19769;48.150;16.306;2023-05-18T02:17:38;10.40;99.90
33428;DHT22;19769;48.150;16.306;2023-05-18T02:20:05;10.40;99.90
33428;DHT22;19769;48.150;16.306;2023-05-18T02:22:34;10.40;99.90
33428;DHT22;19769;48.150;16.306;2023-05-18T02:27:35;10.40;99.90
33428;DHT22;19769;48.150;16.306;2023-05-18T02:30:03;10.40;99.90
33428;DHT22;19769;48.150;16.306;2023-05-18T02:32:29;10.40;99.90
33428;DHT22;19769;48.150;16.306;2023-05-18T02:34:57;10.40;99.90
33428;DHT22;19769;48.150;16.306;2023-05-18T02:37:27;10.40;99.90
33428;DHT22;19769;48.150;16.306;2023-05-18T02:39:53;10.30;99.90
33428;DHT22;19769;48.150;16.306;2023-05-18T02:42:19;10.40;99.90
33428;DHT22;19769;48.150;16.306;2023-05-18T02:44:45;10.40;99.90
33428;DHT22;19769;48.150;16.306;2023-05-18T02:47:28;10.40;99.90
33428;DHT22;19769;48.150;16.306;2023-05-18T02:49:54;10.40;99.90
33428;DHT22;19769;48.150;16.306;2023-05-18T02:52:22;10.40;99.90
33428;DHT22;19769;48.150;16.306;2023-05-18T02:54:49;10.40;99.90
33428;DHT22;19769;48.150;16.306;2023-05-18T02:57:21;10.50;99.90
33428;DHT22;19769;48.150;16.306;2023-05-18T02:59:57;10.40;99.90
33428;DHT22;19769;48.150;16.306;2023-05-18T03:02:29;10.40;99.90
33428;DHT22;19769;48.150;16.306;2023-05-18T03:04:55;10.50;99.90
33428;DHT22;19769;48.150;16.306;2023-05-18T03:07:22;10.40;99.90
33428;DHT22;19769;48.150;16.306;2023-05-18T03:09:48;10.40;99.90
33428;DHT22;19769;48.150;16.306;2023-05-18T03:12:14;10.40;99.90
33428;DHT22;19769;48.150;16.306;2023-05-18T03:17:09;10.40;99.90
33428;DHT22;19769;48.150;16.306;2023-05-18T03:19:37;10.40;99.90
33428;DHT22;19769;48.150;16.306;2023-05-18T03:22:03;10.40;99.90
33428;DHT22;19769;48.150;16.306;2023-05-18T03:24:31;10.40;99.90
33428;DHT22;19769;48.150;16.306;2023-05-18T03:27:07;10.40;99.90
33428;DHT22;19769;48.150;16.306;2023-05-18T03:29:34;10.50;99.90
33428;DHT22;19769;48.150;16.306;2023-05-18T03:32:02;10.50;99.90
33428;DHT22;19769;48.150;16.306;2023-05-18T03:34:29;10.40;99.90
33428;DHT22;19769;48.150;16.306;2023-05-18T03:36:55;10.40;99.90
33428;DHT22;19769;48.150;16.306;2023-05-18T03:39:24;10.40;99.90
33428;DHT22;19769;48.150;16.306;2023-05-18T03:41:50;10.40;99.90
33428;DHT22;19769;48.150;16.306;2023-05-18T03:44:17;10.40;99.90
33428;DHT22;19769;48.150;16.306;2023-05-18T03:46:43;10.50;99.90
33428;DHT22;19769;48.150;16.306;2023-05-18T03:49:16;10.50;99.90
33428;DHT22;19769;48.150;16.306;2023-05-18T03:51:42;10.60;99.90
33428;DHT22;19769;48.150;16.306;2023-05-18T03:54:09;10.60;99.90
33428;DHT22;19769;48.150;16.306;2023-05-18T03:56:35;10.60;99.90
33428;DHT22;19769;48.150;16.306;2023-05-18T03:59:01;10.60;99.90
33428;DHT22;19769;48.150;16.306;2023-05-18T04:01:29;10.60;99.90
33428;DHT22;19769;48.150;16.306;2023-05-18T04:03:57;10.50;99.90
33428;DHT22;19769;48.150;16.306;2023-05-18T04:06:24;10.50;99.90
33428;DHT22;19769;48.150;16.306;2023-05-18T04:11:27;10.50;99.90
33428;DHT22;19769;48.150;16.306;2023-05-18T04:13:54;10.50;99.90
33428;DHT22;19769;48.150;16.306;2023-05-18T04:16:19;10.50;99.90
33428;DHT22;19769;48.150;16.306;2023-05-18T04:18:46;10.50;99.90
33428;DHT22;19769;48.150;16.306;2023-05-18T04:21:24;10.60;99.90
33428;DHT22;19769;48.150;16.306;2023-05-18T04:23:49;10.60;99.90
33428;DHT22;19769;48.150;16.306;2023-05-18T04:26:15;10.60;99.90
33428;DHT22;19769;48.150;16.306;2023-05-18T04:28:45;10.60;99.90
33428;DHT22;19769;48.150;16.306;2023-05-18T04:31:18;10.50;99.90
33428;DHT22;19769;48.150;16.306;2023-05-18T04:33:44;10.60;99.90
33428;DHT22;19769;48.150;16.306;2023-05-18T04:36:12;10.60;99.90
33428;DHT22;19769;48.150;16.306;2023-05-18T04:38:39;10.60;99.90
33428;DHT22;19769;48.150;16.306;2023-05-18T04:41:06;10.70;99.90
33428;DHT22;19769;48.150;16.306;2023-05-18T04:43:33;10.60;99.90
33428;DHT22;19769;48.150;16.306;2023-05-18T04:46:00;10.70;99.90
33428;DHT22;19769;48.150;16.306;2023-05-18T04:48:26;10.80;99.90
33428;DHT22;19769;48.150;16.306;2023-05-18T04:50:54;10.60;99.90
33428;DHT22;19769;48.150;16.306;2023-05-18T04:53:20;10.70;99.90
33428;DHT22;19769;48.150;16.306;2023-05-18T04:55:54;10.70;99.90
33428;DHT22;19769;48.150;16.306;2023-05-18T04:58:21;10.60;99.90
33428;DHT22;19769;48.150;16.306;2023-05-18T05:00:54;10.70;99.90
33428;DHT22;19769;48.150;16.306;2023-05-18T05:03:19;10.80;99.90
33428;DHT22;19769;48.150;16.306;2023-05-18T05:05:54;10.70;99.90
33428;DHT22;19769;48.150;16.306;2023-05-18T05:08:20;10.80;99.90
33428;DHT22;19769;48.150;16.306;2023-05-18T05:10:47;10.80;99.90
33428;DHT22;19769;48.150;16.306;2023-05-18T05:13:14;10.80;99.90
33428;DHT22;19769;48.150;16.306;2023-05-18T05:15:40;10.80;99.90
33428;DHT22;19769;48.150;16.306;2023-05-18T05:18:06;10.70;99.90
33428;DHT22;19769;48.150;16.306;2023-05-18T05:20:33;10.70;99.90
33428;DHT22;19769;48.150;16.306;2023-05-18T05:23:11;10.90;99.90
33428;DHT22;19769;48.150;16.306;2023-05-18T05:25:40;10.90;99.90
33428;DHT22;19769;48.150;16.306;2023-05-18T05:28:06;10.90;99.90
33428;DHT22;19769;48.150;16.306;2023-05-18T05:30:33;11.00;99.90
33428;DHT22;19769;48.150;16.306;2023-05-18T05:33:01;11.00;99.90
33428;DHT22;19769;48.150;16.306;2023-05-18T05:35:27;11.00;99.90
33428;DHT22;19769;48.150;16.306;2023-05-18T05:37:55;11.00;99.90
33428;DHT22;19769;48.150;16.306;2023-05-18T05:40:21;11.00;99.90
33428;DHT22;19769;48.150;16.306;2023-05-18T05:42:56;11.00;99.90
33428;DHT22;19769;48.150;16.306;2023-05-18T05:45:22;11.00;99.90
33428;DHT22;19769;48.150;16.306;2023-05-18T05:47:53;11.10;99.90
33428;DHT22;19769;48.150;16.306;2023-05-18T05:50:21;11.10;99.90
33428;DHT22;19769;48.150;16.306;2023-05-18T05:52:49;11.20;99.90
33428;DHT22;19769;48.150;16.306;2023-05-18T05:55:16;11.30;99.90
33428;DHT22;19769;48.150;16.306;2023-05-18T05:57:43;11.30;99.90
33428;DHT22;19769;48.150;16.306;2023-05-18T06:00:09;11.30;99.90
33428;DHT22;19769;48.150;16.306;2023-05-18T06:02:48;11.20;99.90
33428;DHT22;19769;48.150;16.306;2023-05-18T06:05:19;11.20;99.90
33428;DHT22;19769;48.150;16.306;2023-05-18T06:07:45;11.20;99.90
33428;DHT22;19769;48.150;16.306;2023-05-18T06:10:11;11.20;99.90
33428;DHT22;19769;48.150;16.306;2023-05-18T06:12:37;11.50;99.90
33428;DHT22;19769;48.150;16.306;2023-05-18T06:15:03;11.30;99.90
33428;DHT22;19769;48.150;16.306;2023-05-18T06:17:30;11.10;99.90
33428;DHT22;19769;48.150;16.306;2023-05-18T06:19:56;11.30;99.90
33428;DHT22;19769;48.150;16.306;2023-05-18T06:22:23;11.30;99.90
33428;DHT22;19769;48.150;16.306;2023-05-18T06:25:08;11.30;99.90
33428;DHT22;19769;48.150;16.306;2023-05-18T06:27:56;11.30;99.90
33428;DHT22;19769;48.150;16.306;2023-05-18T06:30:42;11.20;99.90
33428;DHT22;19769;48.150;16.306;2023-05-18T06:33:34;11.20;99.90
33428;DHT22;19769;48.150;16.306;2023-05-18T06:38:29;11.30;99.90
33428;DHT22;19769;48.150;16.306;2023-05-18T06:40:56;11.30;99.90
33428;DHT22;19769;48.150;16.306;2023-05-18T06:43:22;11.30;99.90
33428;DHT22;19769;48.150;16.306;2023-05-18T06:46:19;11.30;99.90
33428;DHT22;19769;48.150;16.306;2023-05-18T06:48:47;11.30;99.90
33428;DHT22;19769;48.150;16.306;2023-05-18T06:51:13;11.30;99.90
33428;DHT22;19769;48.150;16.306;2023-05-18T06:53:41;11.30;99.90
33428;DHT22;19769;48.150;16.306;2023-05-18T06:56:09;11.30;99.90
33428;DHT22;19769;48.150;16.306;2023-05-18T06:58:42;11.20;99.90
33428;DHT22;19769;48.150;16.306;2023-05-18T07:01:09;11.20;99.90
33428;DHT22;19769;48.150;16.306;2023-05-18T07:03:35;11.20;99.90
33428;DHT22;19769;48.150;16.306;2023-05-18T07:06:03;11.10;99.90
33428;DHT22;19769;48.150;16.306;2023-05-18T07:08:31;11.20;99.90
33428;DHT22;19769;48.150;16.306;2023-05-18T07:10:57;11.10;99.90
33428;DHT22;19769;48.150;16.306;2023-05-18T07:13:24;11.10;99.90
33428;DHT22;19769;48.150;16.306;2023-05-18T07:15:50;11.10;99.90
33428;DHT22;19769;48.150;16.306;2023-05-18T07:18:17;11.10;99.90
33428;DHT22;19769;48.150;16.306;2023-05-18T07:20:43;11.10;99.90
33428;DHT22;19769;48.150;16.306;2023-05-18T07:23:09;11.10;99.90
33428;DHT22;19769;48.150;16.306;2023-05-18T07:25:34;11.20;99.90
33428;DHT22;19769;48.150;16.306;2023-05-18T07:28:01;11.10;99.90
33428;DHT22;19769;48.150;16.306;2023-05-18T07:30:27;11.20;99.90
33428;DHT22;19769;48.150;16.306;2023-05-18T07:32:53;11.10;99.90
33428;DHT22;19769;48.150;16.306;2023-05-18T07:35:21;11.20;99.90
33428;DHT22;19769;48.150;16.306;2023-05-18T07:37:48;11.10;99.90
33428;DHT22;19769;48.150;16.306;2023-05-18T07:40:13;11.10;99.90
33428;DHT22;19769;48.150;16.306;2023-05-18T07:42:41;11.10;99.90
33428;DHT22;19769;48.150;16.306;2023-05-18T07:45:07;11.20;99.90
33428;DHT22;19769;48.150;16.306;2023-05-18T07:47:33;11.10;99.90
33428;DHT22;19769;48.150;16.306;2023-05-18T07:49:59;11.20;99.90
33428;DHT22;19769;48.150;16.306;2023-05-18T07:52:25;11.20;99.90
33428;DHT22;19769;48.150;16.306;2023-05-18T07:54:52;11.20;99.90
33428;DHT22;19769;48.150;16.306;2023-05-18T07:57:18;11.20;99.90
33428;DHT22;19769;48.150;16.306;2023-05-18T07:59:45;11.20;99.90
33428;DHT22;19769;48.150;16.306;2023-05-18T08:02:12;11.20;99.90
33428;DHT22;19769;48.150;16.306;2023-05-18T08:04:38;11.20;99.90
33428;DHT22;19769;48.150;16.306;2023-05-18T08:07:03;11.30;99.90
33428;DHT22;19769;48.150;16.306;2023-05-18T08:09:30;11.30;99.90
33428;DHT22;19769;48.150;16.306;2023-05-18T08:11:56;11.20;99.90
33428;DHT22;19769;48.150;16.306;2023-05-18T08:14:22;11.20;99.90
33428;DHT22;19769;48.150;16.306;2023-05-18T08:16:48;11.30;99.90
33428;DHT22;19769;48.150;16.306;2023-05-18T08:19:14;11.20;99.90
33428;DHT22;19769;48.150;16.306;2023-05-18T08:21:40;11.20;99.90
33428;DHT22;19769;48.150;16.306;2023-05-18T08:24:06;11.20;99.90
33428;DHT22;19769;48.150;16.306;2023-05-18T08:26:32;11.30;99.90
33428;DHT22;19769;48.150;16.306;2023-05-18T08:28:57;11.30;99.90
33428;DHT22;19769;48.150;16.306;2023-05-18T08:31:24;11.30;99.90
33428;DHT22;19769;48.150;16.306;2023-05-18T08:33:50;11.30;99.90
33428;DHT22;19769;48.150;16.306;2023-05-18T08:36:16;11.30;99.90
33428;DHT22;19769;48.150;16.306;2023-05-18T08:38:42;11.30;99.90
33428;DHT22;19769;48.150;16.306;2023-05-18T08:43:41;11.40;99.90
33428;DHT22;19769;48.150;16.306;2023-05-18T08:48:33;11.40;99.90
33428;DHT22;19769;48.150;16.306;2023-05-18T08:51:01;11.40;99.90
33428;DHT22;19769;48.150;16.306;2023-05-18T08:53:31;11.50;99.90
33428;DHT22;19769;48.150;16.306;2023-05-18T08:55:57;11.50;99.90
33428;DHT22;19769;48.150;16.306;2023-05-18T09:00:51;11.70;99.90
33428;DHT22;19769;48.150;16.306;2023-05-18T09:03:18;11.60;99.90
33428;DHT22;19769;48.150;16.306;2023-05-18T09:05:47;11.70;99.90
33428;DHT22;19769;48.150;16.306;2023-05-18T09:08:13;12.00;99.90
33428;DHT22;19769;48.150;16.306;2023-05-18T09:10:40;11.70;99.90
33428;DHT22;19769;48.150;16.306;2023-05-18T09:13:12;12.00;99.90
33428;DHT22;19769;48.150;16.306;2023-05-18T09:15:39;11.90;99.90
33428;DHT22;19769;48.150;16.306;2023-05-18T09:18:06;11.90;99.90
33428;DHT22;19769;48.150;16.306;2023-05-18T09:20:31;11.80;99.90
33428;DHT22;19769;48.150;16.306;2023-05-18T09:22:58;11.80;99.90
33428;DHT22;19769;48.150;16.306;2023-05-18T09:25:24;11.80;99.90
33428;DHT22;19769;48.150;16.306;2023-05-18T09:27:53;12.00;99.90
33428;DHT22;19769;48.150;16.306;2023-05-18T09:30:20;11.80;99.90
33428;DHT22;19769;48.150;16.306;2023-05-18T09:32:56;11.90;99.90
33428;DHT22;19769;48.150;16.306;2023-05-18T09:35:23;11.90;99.90
33428;DHT22;19769;48.150;16.306;2023-05-18T09:37:49;11.90;99.90
33428;DHT22;19769;48.150;16.306;2023-05-18T09:40:17;12.00;99.90
33428;DHT22;19769;48.150;16.306;2023-05-18T09:42:46;12.00;99.90
33428;DHT22;19769;48.150;16.306;2023-05-18T09:45:17;12.00;99.90
33428;DHT22;19769;48.150;16.306;2023-05-18T09:47:52;12.00;99.90
33428;DHT22;19769;48.150;16.306;2023-05-18T09:50:18;12.00;99.90
33428;DHT22;19769;48.150;16.306;2023-05-18T09:52:44;12.00;99.90
33428;DHT22;19769;48.150;16.306;2023-05-18T09:55:11;12.00;99.90
33428;DHT22;19769;48.150;16.306;2023-05-18T09:57:51;11.90;99.90
33428;DHT22;19769;48.150;16.306;2023-05-18T10:00:18;11.90;99.90
33428;DHT22;19769;48.150;16.306;2023-05-18T10:02:49;12.00;99.90
33428;DHT22;19769;48.150;16.306;2023-05-18T10:05:20;11.80;99.90
33428;DHT22;19769;48.150;16.306;2023-05-18T10:07:46;11.90;99.90
33428;DHT22;19769;48.150;16.306;2023-05-18T10:10:15;11.90;99.90
33428;DHT22;19769;48.150;16.306;2023-05-18T10:12:41;12.10;99.90
33428;DHT22;19769;48.150;16.306;2023-05-18T10:15:08;12.20;99.90
33428;DHT22;19769;48.150;16.306;2023-05-18T10:17:35;11.70;99.90
33428;DHT22;19769;48.150;16.306;2023-05-18T10:20:02;12.00;99.90
33428;DHT22;19769;48.150;16.306;2023-05-18T10:22:30;12.10;99.90
33428;DHT22;19769;48.150;16.306;2023-05-18T10:24:59;12.10;99.90
33428;DHT22;19769;48.150;16.306;2023-05-18T10:27:38;12.10;99.90
33428;DHT22;19769;48.150;16.306;2023-05-18T10:30:05;12.20;99.90
33428;DHT22;19769;48.150;16.306;2023-05-18T10:35:15;12.40;99.90
33428;DHT22;19769;48.150;16.306;2023-05-18T10:37:45;12.10;99.90
33428;DHT22;19769;48.150;16.306;2023-05-18T10:40:13;12.20;99.90
33428;DHT22;19769;48.150;16.306;2023-05-18T10:42:48;12.30;99.90
33428;DHT22;19769;48.150;16.306;2023-05-18T10:45:16;12.40;99.90
33428;DHT22;19769;48.150;16.306;2023-05-18T10:51:11;12.30;99.90
33428;DHT22;19769;48.150;16.306;2023-05-18T10:53:39;12.30;99.90
33428;DHT22;19769;48.150;16.306;2023-05-18T10:56:08;12.30;99.90
33428;DHT22;19769;48.150;16.306;2023-05-18T10:58:34;12.60;99.90
33428;DHT22;19769;48.150;16.306;2023-05-18T11:01:04;12.40;99.90
33428;DHT22;19769;48.150;16.306;2023-05-18T11:03:31;12.60;99.90
33428;DHT22;19769;48.150;16.306;2023-05-18T11:09:00;12.50;99.90
33428;DHT22;19769;48.150;16.306;2023-05-18T11:14:23;12.70;99.90
33428;DHT22;19769;48.150;16.306;2023-05-18T11:16:49;12.60;99.90
33428;DHT22;19769;48.150;16.306;2023-05-18T11:22:09;12.60;99.90
33428;DHT22;19769;48.150;16.306;2023-05-18T11:24:35;12.60;99.90
33428;DHT22;19769;48.150;16.306;2023-05-18T11:29:53;12.70;99.90
33428;DHT22;19769;48.150;16.306;2023-05-18T11:35:22;12.70;99.90
33428;DHT22;19769;48.150;16.306;2023-05-18T11:40:57;12.80;99.90
33428;DHT22;19769;48.150;16.306;2023-05-18T11:43:23;12.80;99.90
33428;DHT22;19769;48.150;16.306;2023-05-18T11:46:06;12.80;99.90
33428;DHT22;19769;48.150;16.306;2023-05-18T11:48:42;12.80;99.90
33428;DHT22;19769;48.150;16.306;2023-05-18T11:51:14;12.80;99.90
33428;DHT22;19769;48.150;16.306;2023-05-18T11:53:40;12.90;99.90
33428;DHT22;19769;48.150;16.306;2023-05-18T11:56:09;13.20;99.90
33428;DHT22;19769;48.150;16.306;2023-05-18T11:58:36;13.10;99.90
33428;DHT22;19769;48.150;16.306;2023-05-18T12:01:04;13.30;99.90
33428;DHT22;19769;48.150;16.306;2023-05-18T12:03:31;13.50;99.90
33428;DHT22;19769;48.150;16.306;2023-05-18T12:08:27;13.60;99.90
33428;DHT22;19769;48.150;16.306;2023-05-18T12:10:56;13.60;99.90
33428;DHT22;19769;48.150;16.306;2023-05-18T12:15:50;13.10;99.90
33428;DHT22;19769;48.150;16.306;2023-05-18T12:18:18;13.30;99.90
33428;DHT22;19769;48.150;16.306;2023-05-18T12:20:44;13.20;99.90
33428;DHT22;19769;48.150;16.306;2023-05-18T12:23:11;13.20;99.90
33428;DHT22;19769;48.150;16.306;2023-05-18T12:25:37;13.00;99.90
33428;DHT22;19769;48.150;16.306;2023-05-18T12:28:04;13.10;99.90
33428;DHT22;19769;48.150;16.306;2023-05-18T12:30:30;12.90;99.90
33428;DHT22;19769;48.150;16.306;2023-05-18T12:33:03;12.90;99.90
33428;DHT22;19769;48.150;16.306;2023-05-18T12:35:31;12.90;99.90
33428;DHT22;19769;48.150;16.306;2023-05-18T12:37:57;13.00;99.90
33428;DHT22;19769;48.150;16.306;2023-05-18T12:40:25;13.10;99.90
33428;DHT22;19769;48.150;16.306;2023-05-18T12:45:21;13.10;99.90
33428;DHT22;19769;48.150;16.306;2023-05-18T12:47:48;13.00;99.90
33428;DHT22;19769;48.150;16.306;2023-05-18T12:50:18;13.10;99.90
33428;DHT22;19769;48.150;16.306;2023-05-18T12:52:50;13.10;99.90
33428;DHT22;19769;48.150;16.306;2023-05-18T12:55:17;13.30;99.90
33428;DHT22;19769;48.150;16.306;2023-05-18T12:58:05;13.20;99.90
33428;DHT22;19769;48.150;16.306;2023-05-18T13:00:35;13.30;99.90
33428;DHT22;19769;48.150;16.306;2023-05-18T13:03:04;13.30;99.90
33428;DHT22;19769;48.150;16.306;2023-05-18T13:05:30;13.40;99.90
33428;DHT22;19769;48.150;16.306;2023-05-18T13:07:57;13.30;99.90
33428;DHT22;19769;48.150;16.306;2023-05-18T13:10:23;13.30;99.90
33428;DHT22;19769;48.150;16.306;2023-05-18T13:12:50;13.30;99.90
33428;DHT22;19769;48.150;16.306;2023-05-18T13:15:19;13.40;99.90
33428;DHT22;19769;48.150;16.306;2023-05-18T13:23:26;13.50;99.90
33428;DHT22;19769;48.150;16.306;2023-05-18T13:25:52;13.60;99.90
33428;DHT22;19769;48.150;16.306;2023-05-18T13:28:18;13.50;99.90
33428;DHT22;19769;48.150;16.306;2023-05-18T13:30:45;13.50;99.90
33428;DHT22;19769;48.150;16.306;2023-05-18T13:33:12;13.50;99.90
33428;DHT22;19769;48.150;16.306;2023-05-18T13:35:39;13.50;99.90
33428;DHT22;19769;48.150;16.306;2023-05-18T13:38:08;13.40;99.90
33428;DHT22;19769;48.150;16.306;2023-05-18T13:40:35;13.50;99.90
33428;DHT22;19769;48.150;16.306;2023-05-18T13:43:01;13.50;99.90
33428;DHT22;19769;48.150;16.306;2023-05-18T13:45:26;13.60;99.90
33428;DHT22;19769;48.150;16.306;2023-05-18T13:47:52;13.50;99.90
33428;DHT22;19769;48.150;16.306;2023-05-18T13:50:19;13.90;99.90
33428;DHT22;19769;48.150;16.306;2023-05-18T13:52:46;13.70;99.90
33428;DHT22;19769;48.150;16.306;2023-05-18T13:55:12;13.60;99.90
33428;DHT22;19769;48.150;16.306;2023-05-18T13:57:38;13.60;99.90
33428;DHT22;19769;48.150;16.306;2023-05-18T14:00:04;13.70;99.90
33428;DHT22;19769;48.150;16.306;2023-05-18T14:02:40;13.70;99.90
33428;DHT22;19769;48.150;16.306;2023-05-18T14:05:06;13.70;99.90
33428;DHT22;19769;48.150;16.306;2023-05-18T14:14:31;14.60;99.90
33428;DHT22;19769;48.150;16.306;2023-05-18T14:16:59;13.50;99.90
33428;DHT22;19769;48.150;16.306;2023-05-18T14:19:30;13.50;99.90
33428;DHT22;19769;48.150;16.306;2023-05-18T14:22:09;13.50;99.90
33428;DHT22;19769;48.150;16.306;2023-05-18T14:24:38;13.50;99.90
33428;DHT22;19769;48.150;16.306;2023-05-18T14:27:04;13.60;99.90
33428;DHT22;19769;48.150;16.306;2023-05-18T14:29:30;13.50;99.90
33428;DHT22;19769;48.150;16.306;2023-05-18T14:31:58;13.50;99.90
33428;DHT22;19769;48.150;16.306;2023-05-18T14:34:27;13.50;99.90
33428;DHT22;19769;48.150;16.306;2023-05-18T14:36:53;13.80;99.90
33428;DHT22;19769;48.150;16.306;2023-05-18T14:39:18;12.50;99.90
33428;DHT22;19769;48.150;16.306;2023-05-18T14:41:47;13.50;99.90
33428;DHT22;19769;48.150;16.306;2023-05-18T14:44:16;14.30;99.90
33428;DHT22;19769;48.150;16.306;2023-05-18T14:46:48;13.80;99.90
33428;DHT22;19769;48.150;16.306;2023-05-18T14:49:14;13.40;99.90
33428;DHT22;19769;48.150;16.306;2023-05-18T14:51:43;13.50;99.90
33428;DHT22;19769;48.150;16.306;2023-05-18T14:54:12;13.10;99.90
33428;DHT22;19769;48.150;16.306;2023-05-18T14:56:44;13.60;99.90
33428;DHT22;19769;48.150;16.306;2023-05-18T14:59:16;14.30;99.90
33428;DHT22;19769;48.150;16.306;2023-05-18T15:01:49;13.60;99.90
33428;DHT22;19769;48.150;16.306;2023-05-18T15:04:28;14.20;99.90
33428;DHT22;19769;48.150;16.306;2023-05-18T15:06:56;13.80;99.90
33428;DHT22;19769;48.150;16.306;2023-05-18T15:09:43;13.80;99.90
33428;DHT22;19769;48.150;16.306;2023-05-18T15:12:22;13.80;99.90
33428;DHT22;19769;48.150;16.306;2023-05-18T15:15:24;13.00;99.90
33428;DHT22;19769;48.150;16.306;2023-05-18T15:18:04;12.50;99.90
33428;DHT22;19769;48.150;16.306;2023-05-18T15:20:34;14.60;99.90
33428;DHT22;19769;48.150;16.306;2023-05-18T15:23:22;13.50;99.90
33428;DHT22;19769;48.150;16.306;2023-05-18T15:26:09;12.70;99.90
33428;DHT22;19769;48.150;16.306;2023-05-18T15:28:41;13.80;99.90
33428;DHT22;19769;48.150;16.306;2023-05-18T15:31:14;13.90;99.90
33428;DHT22;19769;48.150;16.306;2023-05-18T15:33:44;14.70;99.90
33428;DHT22;19769;48.150;16.306;2023-05-18T15:36:17;13.10;99.90
33428;DHT22;19769;48.150;16.306;2023-05-18T15:38:52;12.70;99.90
33428;DHT22;19769;48.150;16.306;2023-05-18T15:41:26;13.60;99.90
33428;DHT22;19769;48.150;16.306;2023-05-18T15:44:06;13.60;99.90
33428;DHT22;19769;48.150;16.306;2023-05-18T15:46:32;13.50;99.90
33428;DHT22;19769;48.150;16.306;2023-05-18T15:49:08;13.50;99.90
33428;DHT22;19769;48.150;16.306;2023-05-18T15:51:39;13.70;99.90
33428;DHT22;19769;48.150;16.306;2023-05-18T15:54:11;12.50;99.90
33428;DHT22;19769;48.150;16.306;2023-05-18T15:56:36;13.70;99.90
33428;DHT22;19769;48.150;16.306;2023-05-18T15:59:02;13.60;99.90
33428;DHT22;19769;48.150;16.306;2023-05-18T16:01:31;13.60;99.90
33428;DHT22;19769;48.150;16.306;2023-05-18T16:03:59;13.70;99.90
33428;DHT22;19769;48.150;16.306;2023-05-18T16:06:34;14.40;99.90
33428;DHT22;19769;48.150;16.306;2023-05-18T16:09:03;13.60;99.90
33428;DHT22;19769;48.150;16.306;2023-05-18T16:11:28;13.60;99.90
33428;DHT22;19769;48.150;16.306;2023-05-18T16:13:54;13.60;99.90
33428;DHT22;19769;48.150;16.306;2023-05-18T16:16:31;13.60;99.90
33428;DHT22;19769;48.150;16.306;2023-05-18T16:19:05;13.60;99.90
33428;DHT22;19769;48.150;16.306;2023-05-18T16:21:34;13.60;99.90
33428;DHT22;19769;48.150;16.306;2023-05-18T16:24:00;13.40;99.90
33428;DHT22;19769;48.150;16.306;2023-05-18T16:26:31;14.00;99.90
33428;DHT22;19769;48.150;16.306;2023-05-18T16:29:03;13.40;99.90
33428;DHT22;19769;48.150;16.306;2023-05-18T16:31:42;13.40;99.90
33428;DHT22;19769;48.150;16.306;2023-05-18T16:34:07;13.40;99.90
33428;DHT22;19769;48.150;16.306;2023-05-18T16:36:38;13.50;99.90